GRVCE BIHK-BIIS
Flight info
| Callsign | GRVCE |
|---|---|
| Flight time | 0h 16m |
| Altitude | 10000 |
| Route | VFR |
| Aircraft | SC7/L-SC7A/A |
Departure
| Time | 2026-05-04 10:21 |
|---|---|
| Airport | Hólmavík Airport (BIHK) |
Arrival
| Time | 2026-05-04 10:37 |
|---|---|
| Airport | Ísafjörður Airport (BIIS) |
| Time | Latitude | Longitude | Altitude | Speed | Heading |
|---|---|---|---|---|---|
| 2026-05-04 10:17 | 65.70135 | -21.69855 | 124 ft | 0 kts | 14° |
| 2026-05-04 10:19 | 65.70136 | -21.69854 | 124 ft | 3 kts | 18° |
| 2026-05-04 10:19 | 65.70092 | -21.69750 | 132 ft | 17 kts | 155° |
| 2026-05-04 10:19 | 65.70062 | -21.69737 | 133 ft | 0 kts | 104° |
| 2026-05-04 10:19 | 65.70070 | -21.69724 | 133 ft | 0 kts | 5° |
| 2026-05-04 10:20 | 65.70415 | -21.69654 | 205 ft | 89 kts | 8° |
| 2026-05-04 10:21 | 65.71103 | -21.69503 | 681 ft | 106 kts | 8° |
| 2026-05-04 10:21 | 65.71873 | -21.69354 | 1262 ft | 124 kts | 6° |
| 2026-05-04 10:21 | 65.72806 | -21.69993 | 1823 ft | 152 kts | 335° |
| 2026-05-04 10:21 | 65.73605 | -21.71757 | 2435 ft | 161 kts | 316° |
| 2026-05-04 10:22 | 65.75045 | -21.76015 | 3690 ft | 160 kts | 311° |
| 2026-05-04 10:22 | 65.75709 | -21.78131 | 4389 ft | 159 kts | 312° |
| 2026-05-04 10:22 | 65.76422 | -21.80377 | 4582 ft | 180 kts | 312° |
| 2026-05-04 10:23 | 65.77199 | -21.82824 | 4507 ft | 181 kts | 313° |
| 2026-05-04 10:23 | 65.77962 | -21.85252 | 4461 ft | 179 kts | 313° |
| 2026-05-04 10:25 | 65.83620 | -22.02743 | 4452 ft | 189 kts | 313° |
| 2026-05-04 10:25 | 65.84431 | -22.05229 | 4430 ft | 190 kts | 313° |
| 2026-05-04 10:25 | 65.85254 | -22.07751 | 4535 ft | 184 kts | 313° |
| 2026-05-04 10:25 | 65.86042 | -22.10184 | 4745 ft | 185 kts | 313° |
| 2026-05-04 10:26 | 65.86839 | -22.12584 | 4509 ft | 194 kts | 315° |
| 2026-05-04 10:26 | 65.87706 | -22.15115 | 4262 ft | 194 kts | 315° |
| 2026-05-04 10:26 | 65.88603 | -22.17592 | 4096 ft | 192 kts | 314° |
| 2026-05-04 10:26 | 65.89456 | -22.20053 | 4206 ft | 189 kts | 313° |
| 2026-05-04 10:27 | 65.90275 | -22.22531 | 4365 ft | 188 kts | 313° |
| 2026-05-04 10:27 | 65.91100 | -22.24984 | 4372 ft | 194 kts | 313° |
| 2026-05-04 10:27 | 65.91957 | -22.27590 | 4259 ft | 192 kts | 313° |
| 2026-05-04 10:27 | 65.92777 | -22.30125 | 4404 ft | 189 kts | 312° |
| 2026-05-04 10:28 | 65.93598 | -22.32645 | 4456 ft | 189 kts | 313° |
| 2026-05-04 10:28 | 65.94423 | -22.35173 | 4494 ft | 191 kts | 312° |
| 2026-05-04 10:28 | 65.95245 | -22.37730 | 4513 ft | 191 kts | 313° |
| 2026-05-04 10:28 | 65.96068 | -22.40245 | 4512 ft | 192 kts | 313° |
| 2026-05-04 10:29 | 65.96899 | -22.42801 | 4509 ft | 192 kts | 312° |
| 2026-05-04 10:29 | 65.97733 | -22.45359 | 4508 ft | 192 kts | 313° |
| 2026-05-04 10:29 | 65.98568 | -22.47937 | 4506 ft | 193 kts | 312° |
| 2026-05-04 10:29 | 65.99401 | -22.50515 | 4502 ft | 193 kts | 313° |
| 2026-05-04 10:30 | 66.00236 | -22.53090 | 4500 ft | 193 kts | 312° |
| 2026-05-04 10:30 | 66.01071 | -22.55672 | 4496 ft | 193 kts | 312° |
| 2026-05-04 10:30 | 66.01907 | -22.58249 | 4499 ft | 193 kts | 311° |
| 2026-05-04 10:30 | 66.02579 | -22.61122 | 4490 ft | 194 kts | 304° |
| 2026-05-04 10:31 | 66.03054 | -22.64216 | 4488 ft | 199 kts | 278° |
| 2026-05-04 10:31 | 66.03338 | -22.67467 | 4495 ft | 197 kts | 287° |
| 2026-05-04 10:32 | 66.06692 | -22.82942 | 4483 ft | 154 kts | 298° |
| 2026-05-04 10:33 | 66.07059 | -22.85421 | 4483 ft | 155 kts | 291° |
| 2026-05-04 10:33 | 66.07365 | -22.87925 | 4471 ft | 155 kts | 290° |
| 2026-05-04 10:33 | 66.07615 | -22.90170 | 4150 ft | 113 kts | 291° |
| 2026-05-04 10:33 | 66.07807 | -22.92025 | 3810 ft | 131 kts | 291° |
| 2026-05-04 10:34 | 66.08084 | -22.94498 | 3488 ft | 159 kts | 289° |
| 2026-05-04 10:34 | 66.08381 | -22.97140 | 3140 ft | 161 kts | 289° |
| 2026-05-04 10:34 | 66.08645 | -22.99830 | 2713 ft | 162 kts | 289° |
| 2026-05-04 10:34 | 66.08681 | -23.02597 | 2270 ft | 163 kts | 264° |
| 2026-05-04 10:35 | 66.08524 | -23.05316 | 1756 ft | 144 kts | 265° |
| 2026-05-04 10:35 | 66.08350 | -23.07539 | 1304 ft | 125 kts | 263° |
| 2026-05-04 10:35 | 66.08085 | -23.09522 | 931 ft | 120 kts | 255° |
| 2026-05-04 10:35 | 66.07753 | -23.11293 | 851 ft | 106 kts | 251° |
| 2026-05-04 10:36 | 66.07453 | -23.12734 | 798 ft | 98 kts | 246° |
| 2026-05-04 10:36 | 66.07134 | -23.14351 | 716 ft | 103 kts | 255° |
| 2026-05-04 10:36 | 66.06853 | -23.16006 | 603 ft | 105 kts | 247° |
| 2026-05-04 10:36 | 66.06381 | -23.17297 | 508 ft | 101 kts | 204° |
| 2026-05-04 10:37 | 66.05739 | -23.17213 | 415 ft | 89 kts | 143° |
| 2026-05-04 10:37 | 66.05387 | -23.16130 | 246 ft | 75 kts | 97° |
| 2026-05-04 10:37 | 66.05493 | -23.14993 | 68 ft | 67 kts | 60° |
| 2026-05-04 10:37 | 66.05693 | -23.14097 | 15 ft | 35 kts | 63° |
| 2026-05-04 10:39 | 66.05561 | -23.14198 | 21 ft | 0 kts | 220° |